SVR2140 UUDD-URML
Flight info
| Callsign | SVR2140 |
|---|---|
| Flight time | N/A |
| Altitude | 37000 |
| Route | LINRU4S LINRU T614 OSPER T828 OLBEG N72 GORNU B945 AMKOL AMKOL1H |
| Aircraft | A320/M-SDE3FGHIRWY/LB1 |
Departure
| Time | N/A |
|---|---|
| Airport | Domodedovo International Airport (UUDD) |
Arrival
| Time | 2026-04-17 15:59 |
|---|---|
| Airport | Makhachkala Uytash International Airport (URML) |
| Time | Latitude | Longitude | Altitude | Speed | Heading |
|---|---|---|---|---|---|
| 2026-04-17 14:58 | 47.66929 | 45.37916 | 37161 ft | 470 kts | 155° |
| 2026-04-17 14:58 | 47.64001 | 45.40080 | 37147 ft | 470 kts | 155° |
| 2026-04-17 14:58 | 47.58131 | 45.44416 | 37149 ft | 471 kts | 155° |
| 2026-04-17 14:59 | 47.52319 | 45.48708 | 37153 ft | 471 kts | 155° |
| 2026-04-17 14:59 | 47.46447 | 45.53033 | 37158 ft | 472 kts | 155° |
| 2026-04-17 15:00 | 47.40556 | 45.57357 | 37161 ft | 472 kts | 155° |
| 2026-04-17 15:00 | 47.34673 | 45.61678 | 37163 ft | 472 kts | 155° |
| 2026-04-17 15:01 | 47.28782 | 45.65985 | 37166 ft | 473 kts | 155° |
| 2026-04-17 15:01 | 47.22881 | 45.70277 | 37166 ft | 473 kts | 155° |
| 2026-04-17 15:02 | 47.17000 | 45.74569 | 37151 ft | 473 kts | 155° |
| 2026-04-17 15:02 | 47.11100 | 45.78878 | 37157 ft | 474 kts | 155° |
| 2026-04-17 15:03 | 47.05183 | 45.83179 | 37163 ft | 474 kts | 155° |
| 2026-04-17 15:03 | 46.99267 | 45.87469 | 37165 ft | 475 kts | 155° |
| 2026-04-17 15:04 | 46.93344 | 45.91761 | 37169 ft | 475 kts | 155° |
| 2026-04-17 15:04 | 46.87413 | 45.96038 | 37173 ft | 475 kts | 155° |
| 2026-04-17 15:05 | 46.81478 | 46.00308 | 37180 ft | 475 kts | 155° |
| 2026-04-17 15:05 | 46.75585 | 46.04536 | 37176 ft | 475 kts | 155° |
| 2026-04-17 15:06 | 46.69655 | 46.08779 | 37161 ft | 475 kts | 155° |
| 2026-04-17 15:06 | 46.63730 | 46.13019 | 37164 ft | 475 kts | 155° |
| 2026-04-17 15:07 | 46.57791 | 46.17267 | 37169 ft | 475 kts | 155° |
| 2026-04-17 15:07 | 46.51863 | 46.21489 | 37171 ft | 475 kts | 155° |
| 2026-04-17 15:08 | 46.45925 | 46.25698 | 37173 ft | 475 kts | 155° |
| 2026-04-17 15:08 | 46.39991 | 46.29890 | 37184 ft | 474 kts | 155° |
| 2026-04-17 15:09 | 46.34068 | 46.34074 | 37180 ft | 473 kts | 155° |
| 2026-04-17 15:09 | 46.28180 | 46.38213 | 37181 ft | 473 kts | 155° |
| 2026-04-17 15:10 | 46.22240 | 46.42384 | 37165 ft | 473 kts | 155° |
| 2026-04-17 15:11 | 46.13377 | 46.48592 | 37169 ft | 474 kts | 155° |
| 2026-04-17 15:11 | 46.07430 | 46.52744 | 37177 ft | 474 kts | 155° |
| 2026-04-17 15:12 | 46.01489 | 46.56898 | 37185 ft | 474 kts | 155° |
| 2026-04-17 15:12 | 45.95591 | 46.61018 | 37185 ft | 474 kts | 155° |
| 2026-04-17 15:13 | 45.89653 | 46.65163 | 37187 ft | 473 kts | 155° |
| 2026-04-17 15:13 | 45.83721 | 46.69289 | 37193 ft | 473 kts | 155° |
| 2026-04-17 15:14 | 45.77825 | 46.73380 | 37177 ft | 473 kts | 155° |
| 2026-04-17 15:14 | 45.71894 | 46.77490 | 37179 ft | 473 kts | 155° |
| 2026-04-17 15:15 | 45.65971 | 46.81586 | 37188 ft | 474 kts | 155° |
| 2026-04-17 15:15 | 45.60010 | 46.85700 | 37200 ft | 474 kts | 155° |
| 2026-04-17 15:16 | 45.54085 | 46.89775 | 37206 ft | 473 kts | 156° |
| 2026-04-17 15:16 | 45.48140 | 46.93854 | 37202 ft | 473 kts | 155° |
| 2026-04-17 15:17 | 45.42225 | 46.97915 | 37206 ft | 473 kts | 155° |
| 2026-04-17 15:17 | 45.36328 | 47.01954 | 37207 ft | 472 kts | 155° |
| 2026-04-17 15:18 | 45.30400 | 47.06006 | 37210 ft | 471 kts | 156° |
| 2026-04-17 15:18 | 45.24479 | 47.10042 | 37207 ft | 471 kts | 156° |
| 2026-04-17 15:19 | 45.18599 | 47.14037 | 37209 ft | 470 kts | 156° |
| 2026-04-17 15:19 | 45.12680 | 47.18048 | 37209 ft | 470 kts | 156° |
| 2026-04-17 15:20 | 45.06752 | 47.22004 | 37197 ft | 470 kts | 160° |
| 2026-04-17 15:20 | 45.00487 | 47.24172 | 37209 ft | 465 kts | 174° |
| 2026-04-17 15:21 | 44.95141 | 47.25192 | 37208 ft | 465 kts | 174° |
| 2026-04-17 15:21 | 44.87659 | 47.26649 | 37186 ft | 466 kts | 174° |
| 2026-04-17 15:22 | 44.82308 | 47.27693 | 37189 ft | 466 kts | 174° |
| 2026-04-17 15:22 | 44.75869 | 47.28947 | 37201 ft | 466 kts | 174° |
| 2026-04-17 15:23 | 44.69475 | 47.30196 | 37217 ft | 465 kts | 174° |
| 2026-04-17 15:23 | 44.63084 | 47.31441 | 37205 ft | 462 kts | 174° |
| 2026-04-17 15:24 | 44.56708 | 47.32668 | 37200 ft | 460 kts | 174° |
| 2026-04-17 15:24 | 44.50370 | 47.33887 | 37203 ft | 459 kts | 174° |
| 2026-04-17 15:25 | 44.44052 | 47.35054 | 37200 ft | 458 kts | 175° |
| 2026-04-17 15:25 | 44.37722 | 47.36212 | 37209 ft | 458 kts | 175° |
| 2026-04-17 15:26 | 44.31439 | 47.37362 | 37187 ft | 458 kts | 175° |
| 2026-04-17 15:26 | 44.25094 | 47.38520 | 37196 ft | 458 kts | 175° |
| 2026-04-17 15:27 | 44.18807 | 47.39676 | 37181 ft | 458 kts | 175° |
| 2026-04-17 15:27 | 44.12475 | 47.40829 | 36820 ft | 459 kts | 175° |
| 2026-04-17 15:27 | 44.09300 | 47.41404 | 35918 ft | 456 kts | 175° |
| 2026-04-17 15:28 | 44.06172 | 47.41976 | 35203 ft | 448 kts | 174° |
| 2026-04-17 15:28 | 44.03111 | 47.42540 | 34541 ft | 440 kts | 174° |
| 2026-04-17 15:28 | 44.00095 | 47.43091 | 33785 ft | 434 kts | 174° |
| 2026-04-17 15:28 | 43.97117 | 47.43633 | 33079 ft | 430 kts | 174° |
| 2026-04-17 15:29 | 43.94164 | 47.44172 | 32675 ft | 425 kts | 174° |
| 2026-04-17 15:29 | 43.91256 | 47.44697 | 32266 ft | 421 kts | 174° |
| 2026-04-17 15:29 | 43.88363 | 47.45219 | 31847 ft | 417 kts | 174° |
| 2026-04-17 15:29 | 43.85497 | 47.45740 | 31431 ft | 414 kts | 174° |
| 2026-04-17 15:30 | 43.82653 | 47.46259 | 31014 ft | 411 kts | 174° |
| 2026-04-17 15:30 | 43.79830 | 47.46768 | 30597 ft | 408 kts | 174° |
| 2026-04-17 15:30 | 43.77017 | 47.47269 | 30196 ft | 405 kts | 174° |
| 2026-04-17 15:30 | 43.74231 | 47.47767 | 29737 ft | 402 kts | 174° |
| 2026-04-17 15:31 | 43.71462 | 47.48260 | 29293 ft | 400 kts | 175° |
| 2026-04-17 15:31 | 43.68712 | 47.48753 | 28865 ft | 397 kts | 174° |
| 2026-04-17 15:31 | 43.65974 | 47.49248 | 28443 ft | 395 kts | 174° |
| 2026-04-17 15:31 | 43.63264 | 47.49739 | 28038 ft | 394 kts | 174° |
| 2026-04-17 15:32 | 43.60536 | 47.49881 | 27624 ft | 389 kts | 184° |
| 2026-04-17 15:32 | 43.57883 | 47.49612 | 27291 ft | 386 kts | 186° |
| 2026-04-17 15:32 | 43.55242 | 47.49154 | 26930 ft | 379 kts | 200° |
| 2026-04-17 15:32 | 43.52933 | 47.47555 | 26674 ft | 366 kts | 220° |
| 2026-04-17 15:33 | 43.51199 | 47.45081 | 26413 ft | 356 kts | 237° |
| 2026-04-17 15:33 | 43.50042 | 47.42126 | 26157 ft | 345 kts | 252° |
| 2026-04-17 15:33 | 43.49498 | 47.38962 | 25896 ft | 335 kts | 268° |
| 2026-04-17 15:33 | 43.49568 | 47.35807 | 25644 ft | 326 kts | 282° |
| 2026-04-17 15:34 | 43.50218 | 47.32871 | 25397 ft | 318 kts | 297° |
| 2026-04-17 15:34 | 43.51373 | 47.30326 | 25156 ft | 311 kts | 311° |
| 2026-04-17 15:34 | 43.52925 | 47.28316 | 24911 ft | 306 kts | 325° |
| 2026-04-17 15:34 | 43.54775 | 47.26907 | 24666 ft | 302 kts | 338° |
| 2026-04-17 15:35 | 43.56792 | 47.26169 | 24430 ft | 301 kts | 351° |
| 2026-04-17 15:35 | 43.58891 | 47.26010 | 24197 ft | 301 kts | 359° |
| 2026-04-17 15:35 | 43.60988 | 47.26103 | 23961 ft | 302 kts | 1° |
| 2026-04-17 15:35 | 43.63076 | 47.26315 | 23691 ft | 300 kts | 3° |
| 2026-04-17 15:36 | 43.65151 | 47.26566 | 23327 ft | 298 kts | 3° |
| 2026-04-17 15:36 | 43.67207 | 47.26812 | 22950 ft | 295 kts | 3° |
| 2026-04-17 15:36 | 43.69221 | 47.27041 | 22341 ft | 293 kts | 3° |
| 2026-04-17 15:36 | 43.71219 | 47.27560 | 21753 ft | 292 kts | 15° |
| 2026-04-17 15:37 | 43.73082 | 47.28671 | 21205 ft | 292 kts | 29° |
| 2026-04-17 15:37 | 43.74698 | 47.30359 | 20653 ft | 292 kts | 42° |
| 2026-04-17 15:37 | 43.75968 | 47.32527 | 20121 ft | 292 kts | 57° |
| 2026-04-17 15:37 | 43.76847 | 47.35088 | 19374 ft | 300 kts | 72° |
| 2026-04-17 15:38 | 43.77246 | 47.37948 | 18715 ft | 305 kts | 85° |
| 2026-04-17 15:38 | 43.77128 | 47.40873 | 18092 ft | 305 kts | 100° |
| 2026-04-17 15:38 | 43.76503 | 47.43670 | 17487 ft | 303 kts | 115° |
| 2026-04-17 15:38 | 43.75416 | 47.46143 | 16934 ft | 299 kts | 129° |
| 2026-04-17 15:39 | 43.73953 | 47.48151 | 16388 ft | 295 kts | 144° |
| 2026-04-17 15:39 | 43.72191 | 47.49564 | 15595 ft | 299 kts | 162° |
| 2026-04-17 15:39 | 43.70120 | 47.50019 | 14600 ft | 308 kts | 183° |
| 2026-04-17 15:39 | 43.67932 | 47.49872 | 13440 ft | 321 kts | 186° |
| 2026-04-17 15:40 | 43.65657 | 47.49676 | 12128 ft | 334 kts | 186° |
| 2026-04-17 15:40 | 43.63315 | 47.49455 | 11126 ft | 336 kts | 186° |
| 2026-04-17 15:40 | 43.61041 | 47.49243 | 10807 ft | 334 kts | 186° |
| 2026-04-17 15:40 | 43.58709 | 47.49028 | 10555 ft | 337 kts | 185° |
| 2026-04-17 15:41 | 43.56363 | 47.48823 | 10310 ft | 336 kts | 186° |
| 2026-04-17 15:41 | 43.54061 | 47.48631 | 10071 ft | 328 kts | 185° |
| 2026-04-17 15:41 | 43.51815 | 47.48450 | 9875 ft | 317 kts | 185° |
| 2026-04-17 15:41 | 43.49656 | 47.48279 | 9734 ft | 305 kts | 185° |
| 2026-04-17 15:42 | 43.47576 | 47.48113 | 9599 ft | 294 kts | 185° |
| 2026-04-17 15:42 | 43.45563 | 47.47945 | 9465 ft | 285 kts | 185° |
| 2026-04-17 15:42 | 43.43600 | 47.47778 | 9334 ft | 284 kts | 186° |
| 2026-04-17 15:42 | 43.41621 | 47.47609 | 9026 ft | 287 kts | 185° |
| 2026-04-17 15:43 | 43.39627 | 47.47439 | 8681 ft | 285 kts | 185° |
| 2026-04-17 15:43 | 43.37649 | 47.47270 | 8333 ft | 284 kts | 184° |
| 2026-04-17 15:43 | 43.35680 | 47.47102 | 7995 ft | 282 kts | 184° |
| 2026-04-17 15:43 | 43.33727 | 47.46938 | 7671 ft | 280 kts | 184° |
| 2026-04-17 15:44 | 43.31823 | 47.46780 | 7519 ft | 272 kts | 183° |
| 2026-04-17 15:44 | 43.29967 | 47.46626 | 7388 ft | 262 kts | 183° |
| 2026-04-17 15:44 | 43.28204 | 47.46226 | 7257 ft | 254 kts | 202° |
| 2026-04-17 15:44 | 43.26802 | 47.44853 | 7139 ft | 247 kts | 230° |
| 2026-04-17 15:45 | 43.26046 | 47.42793 | 7031 ft | 240 kts | 255° |
| 2026-04-17 15:45 | 43.25694 | 47.40574 | 7006 ft | 239 kts | 256° |
| 2026-04-17 15:45 | 43.25346 | 47.38335 | 7005 ft | 240 kts | 255° |
| 2026-04-17 15:45 | 43.24992 | 47.36103 | 7010 ft | 239 kts | 255° |
| 2026-04-17 15:46 | 43.24375 | 47.34032 | 6914 ft | 239 kts | 238° |
| 2026-04-17 15:46 | 43.23493 | 47.32103 | 6436 ft | 237 kts | 236° |
| 2026-04-17 15:46 | 43.22615 | 47.30214 | 6369 ft | 236 kts | 236° |
| 2026-04-17 15:46 | 43.21727 | 47.28309 | 6270 ft | 237 kts | 236° |
| 2026-04-17 15:47 | 43.20842 | 47.26407 | 6139 ft | 236 kts | 234° |
| 2026-04-17 15:47 | 43.19779 | 47.24723 | 6009 ft | 233 kts | 217° |
| 2026-04-17 15:47 | 43.18500 | 47.23376 | 5879 ft | 232 kts | 215° |
| 2026-04-17 15:47 | 43.17215 | 47.22032 | 5750 ft | 232 kts | 215° |
| 2026-04-17 15:48 | 43.15939 | 47.20691 | 5623 ft | 230 kts | 214° |
| 2026-04-17 15:48 | 43.14670 | 47.19353 | 5508 ft | 230 kts | 214° |
| 2026-04-17 15:48 | 43.13356 | 47.18198 | 5492 ft | 226 kts | 200° |
| 2026-04-17 15:48 | 43.11885 | 47.17496 | 5492 ft | 224 kts | 193° |
| 2026-04-17 15:49 | 43.10398 | 47.16854 | 5492 ft | 224 kts | 193° |
| 2026-04-17 15:49 | 43.08912 | 47.16222 | 5491 ft | 226 kts | 193° |
| 2026-04-17 15:49 | 43.07360 | 47.16197 | 5499 ft | 226 kts | 163° |
| 2026-04-17 15:49 | 43.06008 | 47.17226 | 5497 ft | 223 kts | 134° |
| 2026-04-17 15:50 | 43.05202 | 47.19017 | 5499 ft | 225 kts | 107° |
| 2026-04-17 15:50 | 43.04950 | 47.21131 | 5498 ft | 226 kts | 98° |
| 2026-04-17 15:50 | 43.04747 | 47.23272 | 5494 ft | 228 kts | 98° |
| 2026-04-17 15:50 | 43.04539 | 47.25424 | 5496 ft | 227 kts | 99° |
| 2026-04-17 15:51 | 43.04332 | 47.27547 | 5492 ft | 222 kts | 100° |
| 2026-04-17 15:51 | 43.04126 | 47.29637 | 5494 ft | 221 kts | 102° |
| 2026-04-17 15:51 | 43.03920 | 47.31721 | 5499 ft | 222 kts | 100° |
| 2026-04-17 15:51 | 43.03714 | 47.33808 | 5498 ft | 221 kts | 100° |
| 2026-04-17 15:52 | 43.03501 | 47.35921 | 5270 ft | 226 kts | 102° |
| 2026-04-17 15:52 | 43.03291 | 47.38016 | 5060 ft | 221 kts | 100° |
| 2026-04-17 15:52 | 43.03084 | 47.40065 | 4732 ft | 220 kts | 101° |
| 2026-04-17 15:52 | 43.02877 | 47.42126 | 4293 ft | 216 kts | 101° |
| 2026-04-17 15:53 | 43.02681 | 47.44097 | 4090 ft | 204 kts | 103° |
| 2026-04-17 15:53 | 43.02474 | 47.46012 | 3988 ft | 202 kts | 108° |
| 2026-04-17 15:53 | 43.01903 | 47.47667 | 3891 ft | 186 kts | 130° |
| 2026-04-17 15:53 | 43.00950 | 47.48796 | 3706 ft | 179 kts | 148° |
| 2026-04-17 15:54 | 42.99892 | 47.49684 | 3535 ft | 178 kts | 147° |
| 2026-04-17 15:54 | 42.98843 | 47.50577 | 3362 ft | 177 kts | 147° |
| 2026-04-17 15:54 | 42.97806 | 47.51462 | 3194 ft | 174 kts | 147° |
| 2026-04-17 15:54 | 42.96782 | 47.52349 | 3015 ft | 176 kts | 146° |
| 2026-04-17 15:55 | 42.95766 | 47.53238 | 2903 ft | 169 kts | 146° |
| 2026-04-17 15:55 | 42.94793 | 47.54076 | 2745 ft | 161 kts | 146° |
| 2026-04-17 15:55 | 42.93881 | 47.54857 | 2647 ft | 151 kts | 147° |
| 2026-04-17 15:55 | 42.92924 | 47.55675 | 2483 ft | 163 kts | 147° |
| 2026-04-17 15:56 | 42.91988 | 47.56473 | 2282 ft | 153 kts | 147° |
| 2026-04-17 15:56 | 42.91127 | 47.57206 | 2108 ft | 139 kts | 147° |
| 2026-04-17 15:56 | 42.90320 | 47.57894 | 1921 ft | 135 kts | 146° |
| 2026-04-17 15:56 | 42.89536 | 47.58562 | 1734 ft | 134 kts | 146° |
| 2026-04-17 15:57 | 42.88750 | 47.59231 | 1552 ft | 133 kts | 146° |
| 2026-04-17 15:57 | 42.87974 | 47.59905 | 1385 ft | 128 kts | 145° |
| 2026-04-17 15:57 | 42.87239 | 47.60525 | 1182 ft | 121 kts | 149° |
| 2026-04-17 15:57 | 42.86532 | 47.61125 | 982 ft | 118 kts | 147° |
| 2026-04-17 15:58 | 42.85832 | 47.61721 | 803 ft | 122 kts | 148° |
| 2026-04-17 15:58 | 42.85085 | 47.62353 | 643 ft | 130 kts | 148° |
| 2026-04-17 15:58 | 42.84317 | 47.63007 | 505 ft | 131 kts | 149° |
| 2026-04-17 15:58 | 42.83529 | 47.63678 | 306 ft | 135 kts | 149° |
| 2026-04-17 15:59 | 42.82735 | 47.64354 | 97 ft | 135 kts | 149° |
| 2026-04-17 15:59 | 42.81978 | 47.64997 | 21 ft | 115 kts | 149° |
| 2026-04-17 15:59 | 42.81525 | 47.65373 | 21 ft | 32 kts | 148° |
| 2026-04-17 15:59 | 42.81354 | 47.65516 | 20 ft | 23 kts | 153° |
| 2026-04-17 16:00 | 42.81293 | 47.65573 | 20 ft | 4 kts | 51° |
| 2026-04-17 16:00 | 42.81318 | 47.65555 | 20 ft | 8 kts | 329° |
| 2026-04-17 16:00 | 42.81377 | 47.65506 | 21 ft | 11 kts | 328° |
| 2026-04-17 16:00 | 42.81457 | 47.65437 | 21 ft | 15 kts | 326° |
| 2026-04-17 16:01 | 42.81554 | 47.65348 | 20 ft | 19 kts | 326° |
| 2026-04-17 16:01 | 42.81652 | 47.65311 | 20 ft | 12 kts | 47° |
| 2026-04-17 16:01 | 42.81698 | 47.65419 | 22 ft | 14 kts | 58° |
| 2026-04-17 16:01 | 42.81749 | 47.65529 | 21 ft | 11 kts | 57° |
| 2026-04-17 16:02 | 42.81798 | 47.65575 | 21 ft | 10 kts | 10° |
| 2026-04-17 16:02 | 42.81868 | 47.65537 | 21 ft | 12 kts | 329° |
| 2026-04-17 16:02 | 42.81948 | 47.65472 | 21 ft | 15 kts | 329° |
| 2026-04-17 16:02 | 42.82020 | 47.65484 | 21 ft | 4 kts | 51° |
| 2026-04-17 16:03 | 42.82029 | 47.65507 | 21 ft | 0 kts | 59° |